Time;durP1;ratioP1;P1;durP2;ratioP2;P2;SDS_P1;SDS_P2;PMS_P1;PMS_P2;Temp;Humidity;BMP_temperature;BMP_pressure;BME280_temperature;BME280_humidity;BME280_pressure;Samples;Min_cycle;Max_cycle;Signal;HPM_P1;HPM_P2
2023/07/28 00:01:30;;;;;;;2.60;0.80;;;;;;;-145.41;100.00;58600.66;4994269;28;20378;-73
2023/07/28 00:03:55;;;;;;;1.40;0.65;;;;;;;-145.41;100.00;58600.66;4995156;28;20382;-72
2023/07/28 00:06:21;;;;;;;1.70;0.52;;;;;;;-145.41;100.00;58600.66;4994944;28;20030;-73
2023/07/28 00:08:46;;;;;;;1.30;0.63;;;;;;;-145.41;100.00;58600.66;4996164;28;20482;-72
2023/07/28 00:11:13;;;;;;;1.27;0.52;;;;;;;-145.41;100.00;58600.66;4994062;28;20478;-73
2023/07/28 00:13:39;;;;;;;2.58;0.70;;;;;;;-145.41;100.00;58600.66;4994786;28;20089;-73
2023/07/28 00:16:05;;;;;;;1.88;0.40;;;;;;;-145.41;100.00;58600.66;4994768;28;20038;-73
2023/07/28 00:18:30;;;;;;;0.82;0.43;;;;;;;-145.41;100.00;58600.66;4994761;28;20440;-72
2023/07/28 00:20:56;;;;;;;0.98;0.40;;;;;;;-145.41;100.00;58600.66;4993914;28;20109;-72
2023/07/28 00:23:21;;;;;;;2.33;0.40;;;;;;;-145.41;100.00;58600.66;4994800;28;20109;-73
2023/07/28 00:25:46;;;;;;;1.52;0.40;;;;;;;-145.41;100.00;58600.66;4994767;28;20042;-72
2023/07/28 00:28:12;;;;;;;2.83;0.50;;;;;;;-145.41;100.00;58600.66;4994616;28;20062;-72
2023/07/28 00:30:37;;;;;;;0.52;0.30;;;;;;;-145.41;100.00;58600.66;4994018;28;20038;-72
2023/07/28 00:33:03;;;;;;;4.70;0.60;;;;;;;-145.41;100.00;58600.66;4994700;28;20042;-72
2023/07/28 00:35:29;;;;;;;0.47;0.30;;;;;;;-145.41;100.00;58600.66;4992987;28;20041;-72
2023/07/28 00:37:55;;;;;;;0.95;0.40;;;;;;;-145.41;100.00;58600.66;4995619;28;20055;-72
2023/07/28 00:40:21;;;;;;;1.20;0.30;;;;;;;-145.41;100.00;58600.66;4993509;28;20026;-72
2023/07/28 00:42:48;;;;;;;4.50;0.85;;;;;;;-145.41;100.00;58600.66;4993803;28;20624;-72
2023/07/28 00:45:13;;;;;;;1.92;0.50;;;;;;;-145.41;100.00;58600.66;4994279;28;20113;-72
2023/07/28 00:47:40;;;;;;;1.17;0.38;;;;;;;-145.41;100.00;58600.66;4993751;28;20034;-72
2023/07/28 00:50:08;;;;;;;0.38;0.30;;;;;;;-145.41;100.00;58600.66;4991131;28;20525;-72
2023/07/28 00:52:33;;;;;;;1.13;0.40;;;;;;;-145.41;100.00;58600.66;4994248;28;20045;-72
2023/07/28 00:55:00;;;;;;;1.70;0.40;;;;;;;-145.41;100.00;58600.66;4994503;28;20029;-72
2023/07/28 00:57:25;;;;;;;4.28;0.88;;;;;;;-145.41;100.00;58600.66;4991845;28;20497;-72
2023/07/28 00:59:50;;;;;;;0.52;0.35;;;;;;;-145.41;100.00;58600.66;4987678;28;20038;-72
2023/07/28 01:02:16;;;;;;;1.05;0.30;;;;;;;-145.41;100.00;58600.66;4992888;28;20041;-73
2023/07/28 01:04:41;;;;;;;1.38;0.45;;;;;;;-145.41;100.00;58600.66;4992525;28;20038;-73
2023/07/28 01:07:31;;;;;;;1.20;0.60;;;;;;;-145.41;100.00;58600.66;4992970;28;20539;-73
2023/07/28 01:10:12;;;;;;;1.33;0.60;;;;;;;-145.41;100.00;58600.66;4992608;28;20108;-73
2023/07/28 01:12:37;;;;;;;1.30;0.43;;;;;;;-145.41;100.00;58600.66;4993909;28;20034;-73
2023/07/28 01:15:03;;;;;;;1.13;0.45;;;;;;;-145.41;100.00;58600.66;4993630;28;20076;-73
2023/07/28 01:17:28;;;;;;;1.15;0.50;;;;;;;-145.41;100.00;58600.66;4992531;28;20389;-73
2023/07/28 01:19:54;;;;;;;1.73;0.32;;;;;;;-145.41;100.00;58600.66;4990808;28;20023;-73
2023/07/28 01:22:39;;;;;;;1.45;0.50;;;;;;;-145.41;100.00;58600.66;4993773;28;20041;-73
2023/07/28 01:25:28;;;;;;;4.78;0.55;;;;;;;-145.41;100.00;58600.66;4993731;28;20030;-73
2023/07/28 01:27:55;;;;;;;1.55;0.30;;;;;;;-145.41;100.00;58600.66;4992395;28;20516;-73
2023/07/28 01:30:21;;;;;;;1.17;0.50;;;;;;;-145.41;100.00;58600.66;4991054;28;20026;-73
2023/07/28 01:32:47;;;;;;;1.67;0.40;;;;;;;-145.41;100.00;58600.66;4993610;28;20033;-73
2023/07/28 01:35:13;;;;;;;3.38;0.77;;;;;;;-145.41;100.00;58600.66;4993509;28;20030;-73
2023/07/28 01:37:38;;;;;;;2.28;1.05;;;;;;;-145.41;100.00;58600.66;4992149;28;20432;-73
2023/07/28 01:40:04;;;;;;;2.35;0.40;;;;;;;-145.41;100.00;58600.66;4989355;28;20031;-73
2023/07/28 01:42:29;;;;;;;1.42;0.47;;;;;;;-145.41;100.00;58600.66;4992000;28;20038;-73
2023/07/28 01:44:55;;;;;;;1.00;0.50;;;;;;;-145.41;100.00;58600.66;4990084;28;20115;-73
2023/07/28 01:47:20;;;;;;;2.05;0.50;;;;;;;-145.41;100.00;58600.66;4993035;28;20041;-73
2023/07/28 01:49:45;;;;;;;2.78;0.93;;;;;;;-145.41;100.00;58600.66;4992377;28;20030;-73
2023/07/28 01:52:11;;;;;;;0.98;0.50;;;;;;;-145.41;100.00;58600.66;4992977;28;20497;-73
2023/07/28 01:54:36;;;;;;;1.38;0.50;;;;;;;-145.41;100.00;58600.66;4990177;28;20035;-73
2023/07/28 01:57:01;;;;;;;0.95;0.52;;;;;;;-145.41;100.00;58600.66;4992717;28;20034;-73
2023/07/28 01:59:27;;;;;;;3.05;0.60;;;;;;;-145.41;100.00;58600.66;4990584;28;20379;-73
2023/07/28 02:01:52;;;;;;;3.03;0.60;;;;;;;-145.41;100.00;58600.66;4993039;28;20516;-73
2023/07/28 02:04:17;;;;;;;2.10;0.75;;;;;;;-145.41;100.00;58600.66;4992918;28;20536;-73
2023/07/28 02:06:43;;;;;;;3.35;0.73;;;;;;;-145.41;100.00;58600.66;4991475;28;20038;-73
2023/07/28 02:09:08;;;;;;;3.05;0.80;;;;;;;-145.41;100.00;58600.66;4992636;28;20401;-73
2023/07/28 02:11:34;;;;;;;1.55;0.63;;;;;;;-145.41;100.00;58600.66;4991125;28;20043;-73
2023/07/28 02:13:59;;;;;;;2.65;0.80;;;;;;;-145.41;100.00;58600.66;4991124;28;20044;-73
2023/07/28 02:16:27;;;;;;;2.78;0.73;;;;;;;-145.41;100.00;58600.66;4990741;28;20068;-72
2023/07/28 02:18:53;;;;;;;1.48;0.60;;;;;;;-145.41;100.00;58600.66;4990536;28;20046;-73
2023/07/28 02:21:18;;;;;;;3.30;0.77;;;;;;;-145.41;100.00;58600.66;4991420;28;20117;-73
2023/07/28 02:23:44;;;;;;;2.92;0.80;;;;;;;-145.41;100.00;58600.66;4992407;28;20109;-73
2023/07/28 02:26:09;;;;;;;2.15;0.80;;;;;;;-145.41;100.00;58600.66;4992694;28;20034;-73
2023/07/28 02:28:34;;;;;;;2.58;0.57;;;;;;;-145.41;100.00;58600.66;4990448;28;20034;-73
2023/07/28 02:31:00;;;;;;;1.95;0.75;;;;;;;-145.41;100.00;58600.66;4991229;28;20038;-73
2023/07/28 02:33:29;;;;;;;3.00;0.88;;;;;;;-145.41;100.00;58600.66;4993761;28;20030;-73
2023/07/28 02:35:54;;;;;;;4.10;1.10;;;;;;;-145.41;100.00;58600.66;4991196;28;20780;-73
2023/07/28 02:38:20;;;;;;;4.00;0.80;;;;;;;-145.41;100.00;58600.66;4990176;28;20034;-73
2023/07/28 02:40:45;;;;;;;2.58;0.65;;;;;;;-145.41;100.00;58600.66;4990450;28;20134;-73
2023/07/28 02:43:10;;;;;;;1.65;0.70;;;;;;;-145.41;100.00;58600.66;4991256;28;20034;-73
2023/07/28 02:45:36;;;;;;;2.50;0.70;;;;;;;-145.41;100.00;58600.66;4984938;28;20031;-73
2023/07/28 02:48:01;;;;;;;1.25;0.63;;;;;;;-145.41;100.00;58600.66;4987995;28;20065;-73
2023/07/28 02:50:26;;;;;;;2.22;0.82;;;;;;;-145.41;100.00;58600.66;4989233;28;20026;-73
2023/07/28 02:52:52;;;;;;;3.22;0.95;;;;;;;-145.41;100.00;58600.66;4991876;28;20044;-73
2023/07/28 02:55:17;;;;;;;2.65;1.00;;;;;;;-145.41;100.00;58600.66;4990123;28;20026;-73
2023/07/28 02:57:42;;;;;;;1.23;0.70;;;;;;;-145.41;100.00;58600.66;4992145;28;20074;-73
2023/07/28 03:00:10;;;;;;;4.68;0.88;;;;;;;-145.41;100.00;58600.66;4989854;28;20085;-73
2023/07/28 03:02:36;;;;;;;3.75;1.02;;;;;;;-145.41;100.00;58600.66;4991607;28;20034;-73
2023/07/28 03:05:02;;;;;;;3.45;1.35;;;;;;;-145.41;100.00;58600.66;4992170;28;20034;-73
2023/07/28 03:07:53;;;;;;;1.45;0.70;;;;;;;-145.41;100.00;58600.66;4991806;28;20036;-73
2023/07/28 03:10:18;;;;;;;7.07;1.17;;;;;;;-145.41;100.00;58600.66;4990702;28;20113;-73
2023/07/28 03:12:44;;;;;;;2.78;0.93;;;;;;;-145.41;100.00;58600.66;4991218;28;20037;-73
2023/07/28 03:15:09;;;;;;;2.28;0.80;;;;;;;-145.41;100.00;58600.66;4990271;28;20038;-73
2023/07/28 03:17:35;;;;;;;2.72;1.02;;;;;;;-145.41;100.00;58600.66;4991292;28;20141;-73
2023/07/28 03:20:00;;;;;;;2.22;0.90;;;;;;;-145.41;100.00;58600.66;4989487;28;20633;-73
2023/07/28 03:22:26;;;;;;;3.38;1.33;;;;;;;-145.41;100.00;58600.66;4990281;28;20077;-73
2023/07/28 03:24:51;;;;;;;3.38;1.55;;;;;;;-145.41;100.00;58600.66;4991400;28;20049;-73
2023/07/28 03:27:17;;;;;;;2.88;0.85;;;;;;;-145.41;100.00;58600.66;4991606;28;20113;-76
2023/07/28 03:29:43;;;;;;;5.30;1.30;;;;;;;-145.41;100.00;58600.66;4987350;28;20963;-76
2023/07/28 03:32:08;;;;;;;2.80;1.33;;;;;;;-145.41;100.00;58600.66;4990040;28;20113;-76
2023/07/28 03:34:33;;;;;;;4.90;1.00;;;;;;;-145.41;100.00;58600.66;4991512;28;20042;-75
2023/07/28 03:37:01;;;;;;;2.80;0.95;;;;;;;-145.41;100.00;58600.66;4990250;28;20030;-76
2023/07/28 03:39:26;;;;;;;2.33;1.00;;;;;;;-145.41;100.00;58600.66;4992272;28;20026;-75
2023/07/28 03:41:52;;;;;;;2.92;0.95;;;;;;;-145.41;100.00;58600.66;4991403;28;20153;-76
2023/07/28 03:44:19;;;;;;;3.20;1.00;;;;;;;-145.41;100.00;58600.66;4988849;28;20026;-76
2023/07/28 03:46:44;;;;;;;4.75;0.90;;;;;;;-145.41;100.00;58600.66;4989918;28;20397;-75
2023/07/28 03:49:10;;;;;;;4.40;1.10;;;;;;;-145.41;100.00;58600.66;4989215;28;20037;-76
2023/07/28 03:51:35;;;;;;;2.60;0.98;;;;;;;-145.41;100.00;58600.66;4995275;28;20563;-76
2023/07/28 03:54:00;;;;;;;2.00;0.60;;;;;;;-145.41;100.00;58600.66;4988657;28;20042;-76
2023/07/28 03:56:28;;;;;;;2.58;1.00;;;;;;;-145.41;100.00;58600.66;4991298;28;20058;-76
2023/07/28 03:58:54;;;;;;;3.17;1.13;;;;;;;-145.41;100.00;58600.66;4989121;28;20038;-76
2023/07/28 04:01:21;;;;;;;3.78;1.10;;;;;;;-145.41;100.00;58600.66;4989849;28;20030;-76
2023/07/28 04:03:46;;;;;;;4.70;1.05;;;;;;;-145.41;100.00;58600.66;4990120;28;20385;-76
2023/07/28 04:06:12;;;;;;;3.08;0.95;;;;;;;-145.41;100.00;58600.66;4988242;28;20041;-75
2023/07/28 04:08:37;;;;;;;1.88;0.68;;;;;;;-145.41;100.00;58600.66;4990929;28;20412;-76
2023/07/28 04:11:03;;;;;;;2.50;0.90;;;;;;;-145.41;100.00;58600.66;4990589;28;20089;-76
2023/07/28 04:13:28;;;;;;;3.53;1.00;;;;;;;-145.41;100.00;58600.66;4989151;28;20100;-76
2023/07/28 04:15:53;;;;;;;3.35;1.08;;;;;;;-145.41;100.00;58600.66;4987740;28;20069;-76
2023/07/28 04:18:20;;;;;;;3.38;1.48;;;;;;;-145.41;100.00;58600.66;4987007;28;20207;-76
2023/07/28 04:20:46;;;;;;;2.70;0.88;;;;;;;-145.41;100.00;58600.66;4988833;28;20081;-76
2023/07/28 04:23:11;;;;;;;3.28;1.05;;;;;;;-145.41;100.00;58600.66;4992715;28;20026;-76
2023/07/28 04:25:39;;;;;;;2.55;0.80;;;;;;;-145.41;100.00;58600.66;4992922;28;20038;-76
2023/07/28 04:28:04;;;;;;;2.38;1.00;;;;;;;-145.41;100.00;58600.66;4993002;28;20030;-76
2023/07/28 04:30:29;;;;;;;2.30;0.82;;;;;;;-145.41;100.00;58600.66;4990444;28;20476;-76
2023/07/28 04:32:55;;;;;;;4.28;1.02;;;;;;;-145.41;100.00;58600.66;4993089;28;20050;-76
2023/07/28 04:35:25;;;;;;;2.47;0.60;;;;;;;-145.41;100.00;58600.66;4990881;28;20576;-76
2023/07/28 04:38:05;;;;;;;4.20;1.20;;;;;;;-145.41;100.00;58600.66;4993928;28;20121;-76
2023/07/28 04:41:05;;;;;;;3.20;0.98;;;;;;;-145.41;100.00;58600.66;4993461;28;20134;-76
2023/07/28 04:43:46;;;;;;;4.53;0.70;;;;;;;-145.41;100.00;58600.66;4989797;28;20531;-76
2023/07/28 04:46:11;;;;;;;2.20;0.70;;;;;;;-145.41;100.00;58600.66;4994329;28;20039;-78
2023/07/28 04:48:37;;;;;;;5.20;1.75;;;;;;;-145.41;100.00;58600.66;4999567;28;20076;-77
2023/07/28 04:51:10;;;;;;;4.63;0.70;;;;;;;-145.41;100.00;58600.66;4998749;28;20057;-78
2023/07/28 04:54:01;;;;;;;1.23;0.50;;;;;;;-145.41;100.00;58600.66;4987673;28;20370;-77
2023/07/28 04:56:30;;;;;;;2.65;0.60;;;;;;;-145.41;100.00;58600.66;4990786;28;20281;-76
2023/07/28 04:58:55;;;;;;;2.67;0.70;;;;;;;-145.41;100.00;58600.66;4988811;28;20412;-76
2023/07/28 05:01:20;;;;;;;1.63;0.70;;;;;;;-145.41;100.00;58600.66;4993827;28;20463;-76
2023/07/28 05:03:46;;;;;;;3.13;0.60;;;;;;;-145.41;100.00;58600.66;4991723;28;20515;-76
2023/07/28 05:06:24;;;;;;;1.95;0.80;;;;;;;-145.41;100.00;58600.66;4990534;28;20667;-76
2023/07/28 05:08:49;;;;;;;3.40;0.75;;;;;;;-145.41;100.00;58600.66;4991662;28;20114;-76
2023/07/28 05:11:21;;;;;;;0.80;0.43;;;;;;;-145.41;100.00;58600.66;4991838;28;20018;-76
2023/07/28 05:13:46;;;;;;;1.45;0.60;;;;;;;-145.41;100.00;58600.66;4992715;28;20125;-76
2023/07/28 05:16:11;;;;;;;0.65;0.38;;;;;;;-145.41;100.00;58600.66;4992530;28;20072;-76
2023/07/28 05:18:55;;;;;;;1.80;0.65;;;;;;;-145.41;100.00;58600.66;4990761;28;20616;-76
2023/07/28 05:21:41;;;;;;;2.45;0.98;;;;;;;-145.41;100.00;58600.66;4992270;28;20497;-76
2023/07/28 05:24:09;;;;;;;1.98;0.82;;;;;;;-145.41;100.00;58600.66;4991900;28;20026;-76
2023/07/28 05:26:35;;;;;;;3.85;0.88;;;;;;;-145.41;100.00;58600.66;4990819;28;20030;-76
2023/07/28 05:29:00;;;;;;;1.85;0.70;;;;;;;-145.41;100.00;58600.66;4990825;28;20068;-76
2023/07/28 05:31:27;;;;;;;1.23;0.60;;;;;;;-145.41;100.00;58600.66;4988854;28;20027;-76
2023/07/28 05:33:53;;;;;;;3.55;0.80;;;;;;;-145.41;100.00;58600.66;4991914;28;20042;-76
2023/07/28 05:36:20;;;;;;;3.30;0.77;;;;;;;-145.41;100.00;58600.66;5000510;28;20038;-76
2023/07/28 05:38:46;;;;;;;1.42;0.52;;;;;;;-145.41;100.00;58600.66;4994185;28;20446;-76
2023/07/28 05:41:11;;;;;;;1.02;0.63;;;;;;;-145.41;100.00;58600.66;4992962;28;20109;-76
2023/07/28 05:43:36;;;;;;;3.28;1.70;;;;;;;-145.41;100.00;58600.66;4990463;28;20066;-76
2023/07/28 05:46:03;;;;;;;2.08;0.77;;;;;;;-145.41;100.00;58600.66;4988600;28;20099;-76
2023/07/28 05:48:32;;;;;;;5.28;0.70;;;;;;;-145.41;100.00;58600.66;4991534;28;20041;-76
2023/07/28 05:50:58;;;;;;;3.63;1.42;;;;;;;-145.41;100.00;58600.66;4990652;28;20030;-76
2023/07/28 05:53:23;;;;;;;3.85;0.70;;;;;;;-145.41;100.00;58600.66;4990530;28;20045;-76
2023/07/28 05:55:53;;;;;;;1.80;0.75;;;;;;;-145.41;100.00;58600.66;4991437;28;20049;-76
2023/07/28 05:58:18;;;;;;;3.03;0.50;;;;;;;-145.41;100.00;58600.66;4991571;28;20121;-76
2023/07/28 06:00:44;;;;;;;1.67;0.60;;;;;;;-145.41;100.00;58600.66;4990785;28;20109;-76
2023/07/28 06:03:23;;;;;;;2.30;0.65;;;;;;;-145.41;100.00;58600.66;4991606;28;20504;-76
2023/07/28 06:06:03;;;;;;;1.10;0.50;;;;;;;-145.41;100.00;58600.66;4999084;28;20030;-75
2023/07/28 06:08:29;;;;;;;2.85;0.80;;;;;;;-145.41;100.00;58600.66;4991165;28;20509;-76
2023/07/28 06:10:54;;;;;;;1.88;0.75;;;;;;;-145.41;100.00;58600.66;4990738;28;20066;-76
2023/07/28 06:13:20;;;;;;;0.93;0.60;;;;;;;-145.41;100.00;58600.66;4992490;28;20030;-76
2023/07/28 06:15:46;;;;;;;1.35;0.80;;;;;;;-145.41;100.00;58600.66;4991146;28;20076;-76
2023/07/28 06:18:12;;;;;;;3.30;0.70;;;;;;;-145.41;100.00;58600.66;4991273;28;20034;-76
2023/07/28 06:20:37;;;;;;;0.90;0.50;;;;;;;-145.41;100.00;58600.66;4990378;28;20081;-76
2023/07/28 06:23:03;;;;;;;1.33;0.50;;;;;;;-145.41;100.00;58600.66;4991130;28;20058;-76
2023/07/28 06:25:28;;;;;;;1.27;0.50;;;;;;;-145.41;100.00;58600.66;4987697;28;20042;-76
2023/07/28 06:27:53;;;;;;;4.72;0.65;;;;;;;-145.41;100.00;58600.66;4990717;28;20121;-76
2023/07/28 06:30:19;;;;;;;1.98;0.60;;;;;;;-145.41;100.00;58600.66;4991545;28;20053;-76
2023/07/28 06:32:44;;;;;;;2.45;0.45;;;;;;;-145.41;100.00;58600.66;4991025;28;20100;-76
2023/07/28 06:35:10;;;;;;;2.20;0.77;;;;;;;-145.41;100.00;58600.66;4990992;28;20041;-76
2023/07/28 06:37:38;;;;;;;3.20;0.80;;;;;;;-145.41;100.00;58600.66;4994636;28;20412;-76
2023/07/28 06:40:06;;;;;;;1.73;0.50;;;;;;;-145.41;100.00;58600.66;4990325;28;20053;-76
2023/07/28 06:42:34;;;;;;;1.08;0.30;;;;;;;-145.41;100.00;58600.66;4992226;28;20038;-76
2023/07/28 06:45:02;;;;;;;2.50;0.50;;;;;;;-145.41;100.00;58600.66;4988335;28;20031;-76
2023/07/28 06:47:27;;;;;;;1.13;0.32;;;;;;;-145.41;100.00;58600.66;4989002;28;20132;-76
2023/07/28 06:49:54;;;;;;;7.07;0.60;;;;;;;-145.41;100.00;58600.66;4986343;28;20038;-76
2023/07/28 06:52:19;;;;;;;0.98;0.70;;;;;;;-145.41;100.00;58600.66;4990792;28;20054;-76
2023/07/28 06:54:44;;;;;;;0.90;0.60;;;;;;;-145.41;100.00;58600.66;4991148;28;20045;-76
2023/07/28 06:57:10;;;;;;;1.30;0.50;;;;;;;-145.41;100.00;58600.66;4987910;28;20046;-75
2023/07/28 06:59:37;;;;;;;2.05;0.60;;;;;;;-145.41;100.00;58600.66;4989208;28;20038;-75
2023/07/28 07:02:03;;;;;;;3.00;0.50;;;;;;;-145.41;100.00;58600.66;4988135;28;20040;-76
2023/07/28 07:04:28;;;;;;;1.65;0.65;;;;;;;-145.41;100.00;58600.66;4984036;28;20035;-75
2023/07/28 07:06:53;;;;;;;1.73;0.70;;;;;;;-145.41;100.00;58600.66;4990485;28;20030;-75
2023/07/28 07:09:19;;;;;;;4.03;1.00;;;;;;;-145.41;100.00;58600.66;4992232;28;20036;-76
2023/07/28 07:11:45;;;;;;;1.35;0.70;;;;;;;-145.41;100.00;58600.66;4987232;28;20034;-76
2023/07/28 07:14:10;;;;;;;0.90;0.60;;;;;;;-145.41;100.00;58600.66;4988474;28;20037;-76
2023/07/28 07:16:36;;;;;;;4.32;0.90;;;;;;;-145.41;100.00;58600.66;4988179;28;20034;-76
2023/07/28 07:19:01;;;;;;;1.98;0.60;;;;;;;-145.41;100.00;58600.66;4990661;28;20034;-76
2023/07/28 07:21:29;;;;;;;1.08;0.40;;;;;;;-145.41;100.00;58600.66;4987876;28;20097;-75
2023/07/28 07:23:54;;;;;;;0.80;0.50;;;;;;;-145.41;100.00;58600.66;4990829;28;21311;-76
2023/07/28 07:26:26;;;;;;;1.65;0.60;;;;;;;-145.41;100.00;58600.66;4991364;28;20046;-75
2023/07/28 07:28:52;;;;;;;4.65;0.55;;;;;;;-145.41;100.00;58600.66;4990634;28;20116;-75
2023/07/28 07:31:18;;;;;;;0.88;0.40;;;;;;;-145.41;100.00;58600.66;4988117;28;20027;-75
2023/07/28 07:33:43;;;;;;;1.25;0.40;;;;;;;-145.41;100.00;58600.66;4990747;28;20038;-76
2023/07/28 07:36:26;;;;;;;1.75;0.47;;;;;;;-145.41;100.00;58600.66;4991266;28;20061;-75
2023/07/28 07:38:52;;;;;;;3.38;0.60;;;;;;;-145.41;100.00;58600.66;4990037;28;20109;-76
2023/07/28 07:41:20;;;;;;;0.65;0.40;;;;;;;-145.41;100.00;58600.66;4991274;28;20081;-76
2023/07/28 07:43:49;;;;;;;1.23;0.70;;;;;;;-145.41;100.00;58600.66;4991382;28;20100;-76
2023/07/28 07:46:16;;;;;;;2.10;0.40;;;;;;;-145.41;100.00;58600.66;4990542;28;20038;-76
2023/07/28 07:48:42;;;;;;;3.65;0.60;;;;;;;-145.41;100.00;58600.66;4990795;28;20057;-76
2023/07/28 07:51:08;;;;;;;2.17;0.50;;;;;;;-145.41;100.00;58600.66;4990890;28;20498;-76
2023/07/28 07:53:34;;;;;;;0.95;0.63;;;;;;;-145.41;100.00;58600.66;4988809;28;20046;-75
2023/07/28 07:55:59;;;;;;;1.63;0.50;;;;;;;-145.41;100.00;58600.66;4990414;28;20041;-76
2023/07/28 07:58:24;;;;;;;2.08;0.60;;;;;;;-145.41;100.00;58600.66;4993143;28;20042;-76
2023/07/28 08:00:50;;;;;;;1.15;0.57;;;;;;;-145.41;100.00;58600.66;4988101;28;20034;-76
2023/07/28 08:03:15;;;;;;;3.03;0.80;;;;;;;-145.41;100.00;58600.66;4992858;28;20065;-76
2023/07/28 08:05:40;;;;;;;1.92;0.60;;;;;;;-145.41;100.00;58600.66;4994017;28;20497;-75
2023/07/28 08:08:07;;;;;;;1.10;0.60;;;;;;;-145.41;100.00;58600.66;4993682;28;20034;-76
2023/07/28 08:10:33;;;;;;;1.08;0.55;;;;;;;-145.41;100.00;58600.66;4991427;28;20042;-77
2023/07/28 08:12:59;;;;;;;1.35;0.60;;;;;;;-145.41;100.00;58600.66;4993772;28;20041;-76
2023/07/28 08:15:25;;;;;;;1.02;0.63;;;;;;;-145.41;100.00;58600.66;4995217;28;20042;-77
2023/07/28 08:17:50;;;;;;;2.42;0.90;;;;;;;-145.41;100.00;58600.66;4995478;28;20161;-76
2023/07/28 08:20:16;;;;;;;1.45;0.60;;;;;;;-145.41;100.00;58600.66;4998144;28;20042;-77
2023/07/28 08:22:42;;;;;;;3.25;1.30;;;;;;;-145.41;100.00;58600.66;4998871;28;20100;-77
2023/07/28 08:25:08;;;;;;;3.00;1.02;;;;;;;-145.41;100.00;58600.66;4997994;28;20045;-77
2023/07/28 08:27:33;;;;;;;4.95;0.90;;;;;;;-145.41;100.00;58600.66;4997245;28;20038;-77
2023/07/28 08:29:58;;;;;;;2.38;1.25;;;;;;;-145.41;100.00;58600.66;4998683;28;20042;-77
2023/07/28 08:32:24;;;;;;;1.58;0.60;;;;;;;-145.41;100.00;58600.66;4997337;28;20046;-77
2023/07/28 08:34:49;;;;;;;0.95;0.60;;;;;;;-145.41;100.00;58600.66;4995490;28;20121;-77
2023/07/28 08:37:14;;;;;;;0.85;0.50;;;;;;;-145.41;100.00;58600.66;4997235;28;20041;-77
2023/07/28 08:39:40;;;;;;;1.30;0.75;;;;;;;-145.41;100.00;58600.66;4998938;28;20042;-77
2023/07/28 08:42:05;;;;;;;0.55;0.50;;;;;;;-145.41;100.00;58600.66;5000839;28;20037;-77
2023/07/28 08:44:32;;;;;;;1.23;0.57;;;;;;;-145.41;100.00;58600.66;4998852;28;20042;-77
2023/07/28 08:46:59;;;;;;;1.20;0.60;;;;;;;-145.41;100.00;58600.66;4998477;28;20034;-77
2023/07/28 08:49:25;;;;;;;0.80;0.50;;;;;;;-145.41;100.00;58600.66;4995079;28;20582;-77
2023/07/28 08:51:51;;;;;;;1.15;0.50;;;;;;;-145.41;100.00;58600.66;4999218;28;20038;-77
2023/07/28 08:54:16;;;;;;;1.02;0.43;;;;;;;-145.41;100.00;58600.66;4999089;28;20117;-78
2023/07/28 08:56:44;;;;;;;1.05;0.50;;;;;;;-145.41;100.00;58600.66;4999678;28;20520;-78
2023/07/28 08:59:10;;;;;;;0.35;0.30;;;;;;;-145.41;100.00;58600.66;4995353;28;20608;-79
2023/07/28 09:01:43;;;;;;;0.90;0.60;;;;;;;-145.41;100.00;58600.66;4999716;28;20038;-77
2023/07/28 09:04:11;;;;;;;1.23;0.50;;;;;;;-145.41;100.00;58600.66;5004939;28;20053;-78
2023/07/28 09:06:37;;;;;;;5.03;0.75;;;;;;;-145.41;100.00;58600.66;5003477;28;20030;-78
2023/07/28 09:09:07;;;;;;;1.00;0.60;;;;;;;-145.41;100.00;58600.66;5003888;28;20039;-78
2023/07/28 09:11:32;;;;;;;0.68;0.40;;;;;;;-145.41;100.00;58600.66;4999764;28;20052;-78
2023/07/28 09:14:00;;;;;;;1.80;0.57;;;;;;;-145.41;100.00;58600.66;4995566;28;20034;-77
2023/07/28 09:16:25;;;;;;;2.53;0.60;;;;;;;-145.41;100.00;58600.66;4997887;28;20030;-77
2023/07/28 09:19:04;;;;;;;1.17;0.60;;;;;;;-145.41;100.00;58600.66;4997152;28;20034;-78
2023/07/28 09:21:29;;;;;;;0.75;0.25;;;;;;;-145.41;100.00;58600.66;5002023;28;20125;-78
2023/07/28 09:23:55;;;;;;;1.75;0.55;;;;;;;-145.41;100.00;58600.66;5002626;28;20034;-78
2023/07/28 09:26:20;;;;;;;1.00;0.40;;;;;;;-145.41;100.00;58600.66;5000432;28;20122;-78
2023/07/28 09:28:46;;;;;;;0.47;0.30;;;;;;;-145.41;100.00;58600.66;4997247;28;20049;-77
2023/07/28 09:31:11;;;;;;;0.95;0.50;;;;;;;-145.41;100.00;58600.66;5003907;28;20085;-78
2023/07/28 09:33:42;;;;;;;1.08;0.50;;;;;;;-145.41;100.00;58600.66;5006409;28;20038;-78
2023/07/28 09:36:15;;;;;;;0.67;0.53;;;;;;;-145.41;100.00;58600.66;5002030;28;20447;-78
2023/07/28 09:38:41;;;;;;;1.45;0.50;;;;;;;-145.41;100.00;58600.66;5007306;28;20033;-79
2023/07/28 09:41:10;;;;;;;0.80;0.50;;;;;;;-145.41;100.00;58600.66;5005606;28;20035;-78
2023/07/28 09:43:39;;;;;;;1.40;0.63;;;;;;;-145.41;100.00;58600.66;5006131;28;20038;-79
2023/07/28 09:46:09;;;;;;;2.13;0.70;;;;;;;-145.41;100.00;58600.66;5005545;28;20115;-78
2023/07/28 09:48:37;;;;;;;0.90;0.40;;;;;;;-145.41;100.00;58600.66;4995376;28;20312;-78
2023/07/28 09:51:10;;;;;;;0.88;0.60;;;;;;;-145.41;100.00;58600.66;4994719;28;20042;-78
2023/07/28 09:53:40;;;;;;;1.00;0.60;;;;;;;-145.41;100.00;58600.66;5002990;28;20417;-78
2023/07/28 09:56:07;;;;;;;2.90;0.57;;;;;;;-145.41;100.00;58600.66;5001259;28;20034;-78
2023/07/28 09:58:36;;;;;;;1.08;0.63;;;;;;;-145.41;100.00;58600.66;4999061;28;20060;-78
2023/07/28 10:01:05;;;;;;;0.60;0.50;;;;;;;-145.41;100.00;58600.66;4992273;28;20073;-78
2023/07/28 10:03:31;;;;;;;0.50;0.35;;;;;;;-145.41;100.00;58600.66;4999468;28;20106;-79
2023/07/28 10:05:56;;;;;;;2.50;0.93;;;;;;;-145.41;100.00;58600.66;4996435;28;20489;-77
2023/07/28 10:08:23;;;;;;;1.00;0.50;;;;;;;-145.41;100.00;58600.66;5003129;28;20117;-78
2023/07/28 10:10:48;;;;;;;0.70;0.30;;;;;;;-145.41;100.00;58600.66;4995662;28;20045;-78
2023/07/28 10:13:21;;;;;;;1.10;0.50;;;;;;;-145.41;100.00;58600.66;4990116;28;20035;-78
2023/07/28 10:15:50;;;;;;;1.60;0.60;;;;;;;-145.41;100.00;58600.66;4995942;28;20030;-78
2023/07/28 10:18:15;;;;;;;0.70;0.40;;;;;;;-145.41;100.00;58600.66;4995434;28;20105;-77
2023/07/28 10:20:43;;;;;;;1.08;0.65;;;;;;;-145.41;100.00;58600.66;4995127;28;20511;-79
2023/07/28 10:23:14;;;;;;;2.63;0.50;;;;;;;-145.41;100.00;58600.66;5000639;28;20030;-79
2023/07/28 10:25:41;;;;;;;1.10;0.50;;;;;;;-145.41;100.00;58600.66;4998495;28;20042;-78
2023/07/28 10:28:24;;;;;;;0.95;0.50;;;;;;;-145.41;100.00;58600.66;4994574;28;20097;-79
2023/07/28 10:30:54;;;;;;;2.58;0.70;;;;;;;-145.41;100.00;58600.66;4998599;28;20046;-78
2023/07/28 10:33:31;;;;;;;1.27;0.63;;;;;;;-145.41;100.00;58600.66;4996447;28;20053;-78
2023/07/28 10:35:58;;;;;;;1.20;0.73;;;;;;;-145.41;100.00;58600.66;4999598;28;20034;-79
2023/07/28 10:38:32;;;;;;;0.98;0.60;;;;;;;-145.41;100.00;58600.66;5002801;28;20049;-79
2023/07/28 10:41:07;;;;;;;1.92;0.68;;;;;;;-145.41;100.00;58600.66;4994361;28;20113;-79
2023/07/28 10:43:33;;;;;;;0.80;0.50;;;;;;;-145.41;100.00;58600.66;4995104;28;20117;-78
2023/07/28 10:46:00;;;;;;;2.03;0.60;;;;;;;-145.41;100.00;58600.66;4999489;28;20077;-79
2023/07/28 10:48:25;;;;;;;1.02;0.45;;;;;;;-145.41;100.00;58600.66;5003133;28;20097;-79
2023/07/28 10:50:51;;;;;;;1.23;0.60;;;;;;;-145.41;100.00;58600.66;5000421;28;20042;-79
2023/07/28 10:53:17;;;;;;;3.45;0.80;;;;;;;-145.41;100.00;58600.66;5005398;28;20417;-78
2023/07/28 10:55:42;;;;;;;2.45;0.68;;;;;;;-145.41;100.00;58600.66;4998116;28;20030;-78
2023/07/28 10:58:08;;;;;;;1.20;0.50;;;;;;;-145.41;100.00;58600.66;4997271;28;20038;-79
2023/07/28 11:00:33;;;;;;;1.08;0.70;;;;;;;-145.41;100.00;58600.66;4995270;28;20495;-78
2023/07/28 11:02:59;;;;;;;1.58;0.70;;;;;;;-145.41;100.00;58600.66;4999702;28;20061;-78
2023/07/28 11:05:30;;;;;;;2.35;0.80;;;;;;;-145.41;100.00;58600.66;4997775;28;20034;-78
2023/07/28 11:07:57;;;;;;;0.57;0.40;;;;;;;-145.41;100.00;58600.66;4999053;28;20062;-78
2023/07/28 11:10:23;;;;;;;2.05;0.85;;;;;;;-145.41;100.00;58600.66;4996929;28;20042;-78